sensor_id;sensor_type;location;lat;lon;timestamp;pressure;altitude;pressure_sealevel;temperature;humidity
74722;BME280;63470;49.826;6.740;2023-04-08T00:01:59;100681.89;;;9.02;57.33
74722;BME280;63470;49.826;6.740;2023-04-08T00:04:31;100680.80;;;9.01;57.35
74722;BME280;63470;49.826;6.740;2023-04-08T00:07:00;100677.04;;;9.00;57.34
74722;BME280;63470;49.826;6.740;2023-04-08T00:09:31;100682.22;;;9.00;57.36
74722;BME280;63470;49.826;6.740;2023-04-08T00:12:04;100676.55;;;8.96;57.39
74722;BME280;63470;49.826;6.740;2023-04-08T00:14:34;100680.52;;;8.94;57.35
74722;BME280;63470;49.826;6.740;2023-04-08T00:17:02;100679.78;;;8.91;57.43
74722;BME280;63470;49.826;6.740;2023-04-08T00:19:34;100684.22;;;8.85;57.53
74722;BME280;63470;49.826;6.740;2023-04-08T00:22:03;100681.92;;;8.84;57.54
74722;BME280;63470;49.826;6.740;2023-04-08T00:24:34;100681.76;;;8.83;57.46
74722;BME280;63470;49.826;6.740;2023-04-08T00:27:06;100683.31;;;8.83;57.44
74722;BME280;63470;49.826;6.740;2023-04-08T00:29:35;100681.01;;;8.81;57.44
74722;BME280;63470;49.826;6.740;2023-04-08T00:32:07;100683.31;;;8.79;57.50
74722;BME280;63470;49.826;6.740;2023-04-08T00:34:36;100680.95;;;8.75;57.54
74722;BME280;63470;49.826;6.740;2023-04-08T00:37:07;100679.05;;;8.73;57.61
74722;BME280;63470;49.826;6.740;2023-04-08T00:39:37;100677.17;;;8.69;57.63
74722;BME280;63470;49.826;6.740;2023-04-08T00:42:08;100678.25;;;8.66;57.65
74722;BME280;63470;49.826;6.740;2023-04-08T00:44:39;100677.92;;;8.64;57.62
74722;BME280;63470;49.826;6.740;2023-04-08T00:47:13;100677.84;;;8.59;57.69
74722;BME280;63470;49.826;6.740;2023-04-08T00:49:42;100688.94;;;8.57;57.72
74722;BME280;63470;49.826;6.740;2023-04-08T00:52:10;100684.84;;;8.54;57.77
74722;BME280;63470;49.826;6.740;2023-04-08T00:54:43;100685.83;;;8.52;57.81
74722;BME280;63470;49.826;6.740;2023-04-08T00:57:14;100685.67;;;8.50;57.84
74722;BME280;63470;49.826;6.740;2023-04-08T00:59:45;100690.43;;;8.50;57.84
74722;BME280;63470;49.826;6.740;2023-04-08T01:02:41;100694.53;;;8.49;57.85
74722;BME280;63470;49.826;6.740;2023-04-08T01:07:22;100692.50;;;8.48;57.81
74722;BME280;63470;49.826;6.740;2023-04-08T01:09:50;100693.97;;;8.45;57.82
74722;BME280;63470;49.826;6.740;2023-04-08T01:12:24;100696.12;;;8.46;57.78
74722;BME280;63470;49.826;6.740;2023-04-08T01:14:46;100697.50;;;8.45;57.80
74722;BME280;63470;49.826;6.740;2023-04-08T01:17:14;100696.43;;;8.43;57.85
74722;BME280;63470;49.826;6.740;2023-04-08T01:19:44;100696.28;;;8.42;57.85
74722;BME280;63470;49.826;6.740;2023-04-08T01:24:47;100699.05;;;8.43;57.77
74722;BME280;63470;49.826;6.740;2023-04-08T01:27:16;100701.46;;;8.42;57.78
74722;BME280;63470;49.826;6.740;2023-04-08T01:29:46;100703.66;;;8.41;57.78
74722;BME280;63470;49.826;6.740;2023-04-08T01:32:17;100705.48;;;8.40;57.81
74722;BME280;63470;49.826;6.740;2023-04-08T01:34:48;100706.86;;;8.40;57.76
74722;BME280;63470;49.826;6.740;2023-04-08T01:37:18;100703.91;;;8.40;57.71
74722;BME280;63470;49.826;6.740;2023-04-08T01:39:49;100699.73;;;8.40;57.70
74722;BME280;63470;49.826;6.740;2023-04-08T01:42:20;100695.77;;;8.39;57.74
74722;BME280;63470;49.826;6.740;2023-04-08T01:44:51;100698.42;;;8.38;57.76
74722;BME280;63470;49.826;6.740;2023-04-08T01:47:23;100696.91;;;8.37;57.75
74722;BME280;63470;49.826;6.740;2023-04-08T01:49:51;100698.05;;;8.36;57.75
74722;BME280;63470;49.826;6.740;2023-04-08T01:52:22;100694.78;;;8.37;57.72
74722;BME280;63470;49.826;6.740;2023-04-08T01:54:52;100697.49;;;8.37;57.67
74722;BME280;63470;49.826;6.740;2023-04-08T01:57:26;100696.25;;;8.36;57.69
74722;BME280;63470;49.826;6.740;2023-04-08T01:59:58;100696.19;;;8.33;57.74
74722;BME280;63470;49.826;6.740;2023-04-08T02:02:26;100696.75;;;8.33;57.74
74722;BME280;63470;49.826;6.740;2023-04-08T02:04:54;100698.83;;;8.32;57.79
74722;BME280;63470;49.826;6.740;2023-04-08T02:07:25;100697.25;;;8.31;57.87
74722;BME280;63470;49.826;6.740;2023-04-08T02:09:55;100700.88;;;8.34;57.84
74722;BME280;63470;49.826;6.740;2023-04-08T02:12:27;100698.83;;;8.34;57.85
74722;BME280;63470;49.826;6.740;2023-04-08T02:14:57;100697.17;;;8.33;57.82
74722;BME280;63470;49.826;6.740;2023-04-08T02:17:38;100698.05;;;8.34;57.77
74722;BME280;63470;49.826;6.740;2023-04-08T02:20:06;100698.41;;;8.34;57.74
74722;BME280;63470;49.826;6.740;2023-04-08T02:22:53;100700.80;;;8.32;57.73
74722;BME280;63470;49.826;6.740;2023-04-08T02:24:59;100705.55;;;8.29;57.76
74722;BME280;63470;49.826;6.740;2023-04-08T02:27:33;100707.45;;;8.28;57.68
74722;BME280;63470;49.826;6.740;2023-04-08T02:30:02;100706.81;;;8.24;57.68
74722;BME280;63470;49.826;6.740;2023-04-08T02:32:32;100712.25;;;8.21;57.75
74722;BME280;63470;49.826;6.740;2023-04-08T02:35:04;100713.23;;;8.19;57.80
74722;BME280;63470;49.826;6.740;2023-04-08T02:37:31;100713.88;;;8.17;57.89
74722;BME280;63470;49.826;6.740;2023-04-08T02:42:35;100718.08;;;8.13;57.96
74722;BME280;63470;49.826;6.740;2023-04-08T02:45:03;100716.00;;;8.12;57.98
74722;BME280;63470;49.826;6.740;2023-04-08T02:47:33;100717.91;;;8.13;57.97
74722;BME280;63470;49.826;6.740;2023-04-08T02:50:04;100715.03;;;8.13;57.91
74722;BME280;63470;49.826;6.740;2023-04-08T02:52:33;100713.80;;;8.13;57.84
74722;BME280;63470;49.826;6.740;2023-04-08T02:55:07;100712.82;;;8.12;57.79
74722;BME280;63470;49.826;6.740;2023-04-08T02:57:35;100714.45;;;8.11;57.83
74722;BME280;63470;49.826;6.740;2023-04-08T03:00:06;100716.33;;;8.11;57.84
74722;BME280;63470;49.826;6.740;2023-04-08T03:02:35;100717.16;;;8.10;57.88
74722;BME280;63470;49.826;6.740;2023-04-08T03:05:06;100712.98;;;8.10;57.88
74722;BME280;63470;49.826;6.740;2023-04-08T03:07:36;100717.40;;;8.08;57.93
74722;BME280;63470;49.826;6.740;2023-04-08T03:10:07;100723.59;;;8.08;57.95
74722;BME280;63470;49.826;6.740;2023-04-08T03:12:37;100716.91;;;8.08;57.93
74722;BME280;63470;49.826;6.740;2023-04-08T03:15:08;100714.52;;;8.08;57.93
74722;BME280;63470;49.826;6.740;2023-04-08T03:17:37;100716.10;;;8.10;57.91
74722;BME280;63470;49.826;6.740;2023-04-08T03:20:08;100714.04;;;8.11;57.90
74722;BME280;63470;49.826;6.740;2023-04-08T03:22:39;100718.73;;;8.11;57.92
74722;BME280;63470;49.826;6.740;2023-04-08T03:25:09;100713.79;;;8.11;57.96
74722;BME280;63470;49.826;6.740;2023-04-08T03:27:39;100714.69;;;8.10;57.96
74722;BME280;63470;49.826;6.740;2023-04-08T03:30:10;100715.18;;;8.10;57.98
74722;BME280;63470;49.826;6.740;2023-04-08T03:32:41;100717.73;;;8.11;57.96
74722;BME280;63470;49.826;6.740;2023-04-08T03:35:11;100719.62;;;8.12;57.92
74722;BME280;63470;49.826;6.740;2023-04-08T03:37:42;100718.64;;;8.11;57.93
74722;BME280;63470;49.826;6.740;2023-04-08T03:40:12;100724.56;;;8.11;57.97
74722;BME280;63470;49.826;6.740;2023-04-08T03:42:43;100721.77;;;8.11;58.01
74722;BME280;63470;49.826;6.740;2023-04-08T03:45:14;100724.98;;;8.14;58.00
74722;BME280;63470;49.826;6.740;2023-04-08T03:47:44;100723.66;;;8.17;57.93
74722;BME280;63470;49.826;6.740;2023-04-08T03:50:15;100727.05;;;8.19;57.90
74722;BME280;63470;49.826;6.740;2023-04-08T03:52:47;100726.81;;;8.24;57.79
74722;BME280;63470;49.826;6.740;2023-04-08T03:55:16;100720.27;;;8.25;57.74
74722;BME280;63470;49.826;6.740;2023-04-08T03:57:46;100723.81;;;8.28;57.67
74722;BME280;63470;49.826;6.740;2023-04-08T04:00:17;100721.34;;;8.30;57.65
74722;BME280;63470;49.826;6.740;2023-04-08T04:02:47;100723.40;;;8.30;57.64
74722;BME280;63470;49.826;6.740;2023-04-08T04:05:18;100720.66;;;8.28;57.61
74722;BME280;63470;49.826;6.740;2023-04-08T04:07:51;100719.91;;;8.24;57.61
74722;BME280;63470;49.826;6.740;2023-04-08T04:10:19;100720.64;;;8.16;57.73
74722;BME280;63470;49.826;6.740;2023-04-08T04:12:49;100718.48;;;8.08;57.89
74722;BME280;63470;49.826;6.740;2023-04-08T04:15:20;100722.80;;;8.00;58.01
74722;BME280;63470;49.826;6.740;2023-04-08T04:17:50;100726.08;;;7.93;58.17
74722;BME280;63470;49.826;6.740;2023-04-08T04:20:21;100727.45;;;7.87;58.28
74722;BME280;63470;49.826;6.740;2023-04-08T04:22:52;100730.47;;;7.82;58.38
74722;BME280;63470;49.826;6.740;2023-04-08T04:25:22;100728.94;;;7.82;58.40
74722;BME280;63470;49.826;6.740;2023-04-08T04:27:53;100732.62;;;7.83;58.38
74722;BME280;63470;49.826;6.740;2023-04-08T04:30:23;100733.70;;;7.85;58.32
74722;BME280;63470;49.826;6.740;2023-04-08T04:32:54;100735.61;;;7.91;58.18
74722;BME280;63470;49.826;6.740;2023-04-08T04:35:24;100736.05;;;7.96;58.04
74722;BME280;63470;49.826;6.740;2023-04-08T04:37:55;100740.16;;;7.98;58.00
74722;BME280;63470;49.826;6.740;2023-04-08T04:40:25;100744.92;;;7.99;58.07
74722;BME280;63470;49.826;6.740;2023-04-08T04:42:56;100748.47;;;8.03;58.04
74722;BME280;63470;49.826;6.740;2023-04-08T04:45:26;100746.24;;;8.05;58.05
74722;BME280;63470;49.826;6.740;2023-04-08T04:47:57;100751.77;;;8.07;58.09
74722;BME280;63470;49.826;6.740;2023-04-08T04:50:27;100748.30;;;8.10;58.05
74722;BME280;63470;49.826;6.740;2023-04-08T04:52:58;100751.77;;;8.15;58.00
74722;BME280;63470;49.826;6.740;2023-04-08T04:55:28;100755.72;;;8.19;57.92
74722;BME280;63470;49.826;6.740;2023-04-08T04:57:59;100753.42;;;8.20;57.93
74722;BME280;63470;49.826;6.740;2023-04-08T05:00:29;100756.97;;;8.23;57.92
74722;BME280;63470;49.826;6.740;2023-04-08T05:03:00;100753.75;;;8.24;57.93
74722;BME280;63470;49.826;6.740;2023-04-08T05:05:30;100755.95;;;8.27;57.88
74722;BME280;63470;49.826;6.740;2023-04-08T05:08:03;100758.08;;;8.29;57.84
74722;BME280;63470;49.826;6.740;2023-04-08T05:10:30;100756.61;;;8.30;57.82
74722;BME280;63470;49.826;6.740;2023-04-08T05:13:01;100761.13;;;8.29;57.85
74722;BME280;63470;49.826;6.740;2023-04-08T05:15:31;100762.52;;;8.29;57.82
74722;BME280;63470;49.826;6.740;2023-04-08T05:18:02;100761.70;;;8.29;57.80
74722;BME280;63470;49.826;6.740;2023-04-08T05:20:32;100765.98;;;8.27;57.83
74722;BME280;63470;49.826;6.740;2023-04-08T05:23:03;100768.27;;;8.28;57.79
74722;BME280;63470;49.826;6.740;2023-04-08T05:25:33;100767.95;;;8.29;57.72
74722;BME280;63470;49.826;6.740;2023-04-08T05:28:04;100768.38;;;8.30;57.71
74722;BME280;63470;49.826;6.740;2023-04-08T05:30:34;100774.62;;;8.31;57.67
74722;BME280;63470;49.826;6.740;2023-04-08T05:33:04;100771.91;;;8.33;57.65
74722;BME280;63470;49.826;6.740;2023-04-08T05:35:35;100775.95;;;8.36;57.66
74722;BME280;63470;49.826;6.740;2023-04-08T05:38:07;100776.35;;;8.37;57.72
74722;BME280;63470;49.826;6.740;2023-04-08T05:40:36;100778.73;;;8.41;57.74
74722;BME280;63470;49.826;6.740;2023-04-08T05:43:07;100779.07;;;8.46;57.70
74722;BME280;63470;49.826;6.740;2023-04-08T05:45:37;100780.73;;;8.53;57.66
74722;BME280;63470;49.826;6.740;2023-04-08T05:48:07;100779.41;;;8.59;57.61
74722;BME280;63470;49.826;6.740;2023-04-08T05:50:38;100784.37;;;8.64;57.63
74722;BME280;63470;49.826;6.740;2023-04-08T05:53:12;100790.53;;;8.69;57.65
74722;BME280;63470;49.826;6.740;2023-04-08T05:55:39;100790.80;;;8.74;57.63
74722;BME280;63470;49.826;6.740;2023-04-08T05:58:09;100795.14;;;8.81;57.55
74722;BME280;63470;49.826;6.740;2023-04-08T06:00:40;100795.66;;;8.86;57.56
74722;BME280;63470;49.826;6.740;2023-04-08T06:03:10;100796.30;;;8.93;57.45
74722;BME280;63470;49.826;6.740;2023-04-08T06:05:41;100795.55;;;8.99;57.43
74722;BME280;63470;49.826;6.740;2023-04-08T06:08:11;100795.30;;;9.08;57.37
74722;BME280;63470;49.826;6.740;2023-04-08T06:10:48;100797.27;;;9.15;57.34
74722;BME280;63470;49.826;6.740;2023-04-08T06:13:12;100800.08;;;9.20;57.38
74722;BME280;63470;49.826;6.740;2023-04-08T06:15:43;100797.17;;;9.27;57.41
74722;BME280;63470;49.826;6.740;2023-04-08T06:18:14;100797.50;;;9.37;57.35
74722;BME280;63470;49.826;6.740;2023-04-08T06:20:46;100798.78;;;9.48;57.21
74722;BME280;63470;49.826;6.740;2023-04-08T06:23:14;100797.20;;;9.59;57.08
74722;BME280;63470;49.826;6.740;2023-04-08T06:25:45;100801.92;;;9.72;56.90
74722;BME280;63470;49.826;6.740;2023-04-08T06:28:16;100804.30;;;9.81;56.75
74722;BME280;63470;49.826;6.740;2023-04-08T06:30:46;100803.25;;;9.90;56.68
74722;BME280;63470;49.826;6.740;2023-04-08T06:33:16;100805.06;;;9.97;56.68
74722;BME280;63470;49.826;6.740;2023-04-08T06:35:47;100806.59;;;10.03;56.73
74722;BME280;63470;49.826;6.740;2023-04-08T06:38:17;100805.34;;;10.07;56.87
74722;BME280;63470;49.826;6.740;2023-04-08T06:40:48;100801.02;;;10.19;56.86
74722;BME280;63470;49.826;6.740;2023-04-08T06:43:18;100803.81;;;10.35;56.71
74722;BME280;63470;49.826;6.740;2023-04-08T06:45:51;100802.52;;;10.48;56.49
74722;BME280;63470;49.826;6.740;2023-04-08T06:48:19;100808.11;;;10.62;56.48
74722;BME280;63470;49.826;6.740;2023-04-08T06:50:49;100804.89;;;10.74;56.58
74722;BME280;63470;49.826;6.740;2023-04-08T06:53:21;100809.93;;;10.94;56.49
74722;BME280;63470;49.826;6.740;2023-04-08T06:55:50;100811.98;;;11.14;56.43
74722;BME280;63470;49.826;6.740;2023-04-08T06:58:20;100814.49;;;11.27;56.48
74722;BME280;63470;49.826;6.740;2023-04-08T07:00:52;100817.56;;;11.45;56.31
74722;BME280;63470;49.826;6.740;2023-04-08T07:03:22;100817.42;;;11.59;56.20
74722;BME280;63470;49.826;6.740;2023-04-08T07:05:53;100821.10;;;11.78;56.04
74722;BME280;63470;49.826;6.740;2023-04-08T07:08:23;100823.92;;;11.93;55.92
74722;BME280;63470;49.826;6.740;2023-04-08T07:10:55;100823.52;;;12.05;55.76
74722;BME280;63470;49.826;6.740;2023-04-08T07:13:24;100827.69;;;12.03;55.84
74722;BME280;63470;49.826;6.740;2023-04-08T07:15:55;100828.45;;;12.01;55.91
74722;BME280;63470;49.826;6.740;2023-04-08T07:18:26;100833.92;;;11.93;56.03
74722;BME280;63470;49.826;6.740;2023-04-08T07:20:57;100836.94;;;11.83;56.27
74722;BME280;63470;49.826;6.740;2023-04-08T07:23:27;100836.17;;;11.76;56.48
74722;BME280;63470;49.826;6.740;2023-04-08T07:26:01;100839.80;;;11.71;56.65
74722;BME280;63470;49.826;6.740;2023-04-08T07:28:28;100845.30;;;11.66;56.76
74722;BME280;63470;49.826;6.740;2023-04-08T07:31:12;100845.54;;;11.64;56.89
74722;BME280;63470;49.826;6.740;2023-04-08T07:33:29;100845.47;;;11.67;56.93
74722;BME280;63470;49.826;6.740;2023-04-08T07:36:00;100843.37;;;11.76;56.80
74722;BME280;63470;49.826;6.740;2023-04-08T07:38:30;100847.81;;;11.78;56.67
74722;BME280;63470;49.826;6.740;2023-04-08T07:41:01;100848.43;;;11.82;56.67
74722;BME280;63470;49.826;6.740;2023-04-08T07:43:32;100851.47;;;11.84;56.74
74722;BME280;63470;49.826;6.740;2023-04-08T07:46:05;100853.08;;;11.89;56.79
74722;BME280;63470;49.826;6.740;2023-04-08T07:48:33;100851.75;;;11.98;56.68
74722;BME280;63470;49.826;6.740;2023-04-08T07:51:06;100848.39;;;12.02;56.71
74722;BME280;63470;49.826;6.740;2023-04-08T07:53:34;100851.85;;;12.14;56.68
74722;BME280;63470;49.826;6.740;2023-04-08T07:56:12;100849.55;;;12.21;56.66
74722;BME280;63470;49.826;6.740;2023-04-08T07:58:34;100854.57;;;12.29;56.56
74722;BME280;63470;49.826;6.740;2023-04-08T08:01:19;100851.54;;;12.34;56.57
74722;BME280;63470;49.826;6.740;2023-04-08T08:03:36;100854.02;;;12.40;56.53
74722;BME280;63470;49.826;6.740;2023-04-08T08:06:05;100860.42;;;12.44;56.59
74722;BME280;63470;49.826;6.740;2023-04-08T08:08:36;100862.19;;;12.41;56.58
74722;BME280;63470;49.826;6.740;2023-04-08T08:11:06;100862.88;;;12.33;56.67
74722;BME280;63470;49.826;6.740;2023-04-08T08:13:37;100865.98;;;12.29;56.80
74722;BME280;63470;49.826;6.740;2023-04-08T08:16:11;100862.56;;;12.25;56.97
74722;BME280;63470;49.826;6.740;2023-04-08T08:18:40;100866.73;;;12.29;56.93
74722;BME280;63470;49.826;6.740;2023-04-08T08:21:10;100867.09;;;12.28;56.98
74722;BME280;63470;49.826;6.740;2023-04-08T08:23:39;100871.12;;;12.30;57.02
74722;BME280;63470;49.826;6.740;2023-04-08T08:26:10;100871.79;;;12.34;56.89
74722;BME280;63470;49.826;6.740;2023-04-08T08:28:41;100869.50;;;12.33;56.83
74722;BME280;63470;49.826;6.740;2023-04-08T08:31:12;100871.59;;;12.32;56.91
74722;BME280;63470;49.826;6.740;2023-04-08T08:33:41;100873.94;;;12.35;56.99
74722;BME280;63470;49.826;6.740;2023-04-08T08:36:12;100878.33;;;12.40;56.93
74722;BME280;63470;49.826;6.740;2023-04-08T08:38:42;100878.33;;;12.47;56.87
74722;BME280;63470;49.826;6.740;2023-04-08T08:41:13;100882.30;;;12.53;56.78
74722;BME280;63470;49.826;6.740;2023-04-08T08:43:45;100879.47;;;12.61;56.76
74722;BME280;63470;49.826;6.740;2023-04-08T08:46:16;100878.41;;;12.65;56.70
74722;BME280;63470;49.826;6.740;2023-04-08T08:48:44;100888.02;;;12.65;56.72
74722;BME280;63470;49.826;6.740;2023-04-08T08:51:15;100888.91;;;12.62;56.79
74722;BME280;63470;49.826;6.740;2023-04-08T08:53:45;100891.00;;;12.66;56.85
74722;BME280;63470;49.826;6.740;2023-04-08T08:56:15;100887.08;;;12.73;56.84
74722;BME280;63470;49.826;6.740;2023-04-08T08:58:47;100886.66;;;12.79;56.87
74722;BME280;63470;49.826;6.740;2023-04-08T09:01:35;100892.06;;;12.90;56.73
74722;BME280;63470;49.826;6.740;2023-04-08T09:04:08;100893.09;;;13.03;56.59
74722;BME280;63470;49.826;6.740;2023-04-08T09:06:17;100894.67;;;13.16;56.44
74722;BME280;63470;49.826;6.740;2023-04-08T09:08:48;100898.87;;;13.27;56.40
74722;BME280;63470;49.826;6.740;2023-04-08T09:11:19;100898.60;;;13.34;56.34
74722;BME280;63470;49.826;6.740;2023-04-08T09:13:49;100904.60;;;13.41;56.31
74722;BME280;63470;49.826;6.740;2023-04-08T09:16:19;100901.11;;;13.53;56.28
74722;BME280;63470;49.826;6.740;2023-04-08T09:18:50;100900.06;;;13.83;56.20
74722;BME280;63470;49.826;6.740;2023-04-08T09:21:22;100903.27;;;14.28;55.82
74722;BME280;63470;49.826;6.740;2023-04-08T09:23:51;100900.24;;;14.66;55.42
74722;BME280;63470;49.826;6.740;2023-04-08T09:26:24;100897.48;;;14.95;55.17
74722;BME280;63470;49.826;6.740;2023-04-08T09:29:05;100900.62;;;15.04;55.12
74722;BME280;63470;49.826;6.740;2023-04-08T09:31:23;100893.11;;;15.09;55.10
74722;BME280;63470;49.826;6.740;2023-04-08T09:33:53;100888.81;;;15.25;55.24
74722;BME280;63470;49.826;6.740;2023-04-08T09:36:22;100887.70;;;15.12;55.77
74722;BME280;63470;49.826;6.740;2023-04-08T09:38:54;100890.41;;;14.99;56.21
74722;BME280;63470;49.826;6.740;2023-04-08T09:41:27;100893.66;;;15.55;55.73
74722;BME280;63470;49.826;6.740;2023-04-08T09:43:56;100886.95;;;16.88;54.69
74722;BME280;63470;49.826;6.740;2023-04-08T09:46:28;100884.95;;;18.04;53.96
74722;BME280;63470;49.826;6.740;2023-04-08T09:49:07;100876.61;;;18.97;53.37
74722;BME280;63470;49.826;6.740;2023-04-08T09:51:28;100878.38;;;19.71;53.00
74722;BME280;63470;49.826;6.740;2023-04-08T09:54:00;100874.05;;;20.29;52.69
74722;BME280;63470;49.826;6.740;2023-04-08T09:56:29;100870.23;;;20.56;52.77
74722;BME280;63470;49.826;6.740;2023-04-08T09:58:59;100868.96;;;20.50;53.17
74722;BME280;63470;49.826;6.740;2023-04-08T10:01:37;100866.95;;;20.64;53.30
74722;BME280;63470;49.826;6.740;2023-04-08T10:04:00;100867.39;;;20.79;53.43
74722;BME280;63470;49.826;6.740;2023-04-08T10:06:30;100864.58;;;21.03;53.34
74722;BME280;63470;49.826;6.740;2023-04-08T10:09:01;100867.95;;;21.08;53.51
74722;BME280;63470;49.826;6.740;2023-04-08T10:11:30;100862.75;;;21.48;53.33
74722;BME280;63470;49.826;6.740;2023-04-08T10:14:00;100866.22;;;22.09;52.79
74722;BME280;63470;49.826;6.740;2023-04-08T10:16:31;100858.78;;;21.92;53.18
74722;BME280;63470;49.826;6.740;2023-04-08T10:19:00;100857.75;;;21.85;53.46
74722;BME280;63470;49.826;6.740;2023-04-08T10:21:32;100858.72;;;21.69;53.91
74722;BME280;63470;49.826;6.740;2023-04-08T10:24:07;100854.61;;;21.65;54.16
74722;BME280;63470;49.826;6.740;2023-04-08T10:26:37;100853.59;;;21.74;54.24
74722;BME280;63470;49.826;6.740;2023-04-08T10:29:29;100854.28;;;21.70;54.33
74722;BME280;63470;49.826;6.740;2023-04-08T10:31:39;100850.84;;;21.72;54.34
74722;BME280;63470;49.826;6.740;2023-04-08T10:34:15;100850.20;;;21.97;54.17
74722;BME280;63470;49.826;6.740;2023-04-08T10:36:35;100849.77;;;22.28;53.82
74722;BME280;63470;49.826;6.740;2023-04-08T10:39:05;100846.39;;;22.26;53.73
74722;BME280;63470;49.826;6.740;2023-04-08T10:41:46;100846.09;;;22.04;54.19
74722;BME280;63470;49.826;6.740;2023-04-08T10:46:37;100841.25;;;21.70;54.81
74722;BME280;63470;49.826;6.740;2023-04-08T10:49:08;100841.36;;;21.59;54.91
74722;BME280;63470;49.826;6.740;2023-04-08T10:51:38;100839.05;;;21.84;54.65
74722;BME280;63470;49.826;6.740;2023-04-08T10:54:10;100836.95;;;22.11;54.23
74722;BME280;63470;49.826;6.740;2023-04-08T10:56:51;100831.55;;;22.27;54.11
74722;BME280;63470;49.826;6.740;2023-04-08T10:59:09;100832.14;;;22.62;53.64
74722;BME280;63470;49.826;6.740;2023-04-08T11:01:41;100826.34;;;23.05;53.09
74722;BME280;63470;49.826;6.740;2023-04-08T11:04:12;100825.41;;;23.44;52.85
74722;BME280;63470;49.826;6.740;2023-04-08T11:06:43;100825.58;;;23.95;52.48
74722;BME280;63470;49.826;6.740;2023-04-08T11:09:13;100829.37;;;24.13;52.29
74722;BME280;63470;49.826;6.740;2023-04-08T11:11:43;100818.91;;;24.48;52.23
74722;BME280;63470;49.826;6.740;2023-04-08T11:14:13;100819.63;;;24.91;51.98
74722;BME280;63470;49.826;6.740;2023-04-08T11:16:44;100817.84;;;24.77;52.22
74722;BME280;63470;49.826;6.740;2023-04-08T11:19:15;100811.44;;;24.25;53.15
74722;BME280;63470;49.826;6.740;2023-04-08T11:21:44;100809.59;;;23.51;54.22
74722;BME280;63470;49.826;6.740;2023-04-08T11:24:16;100807.91;;;22.95;55.00
74722;BME280;63470;49.826;6.740;2023-04-08T11:26:46;100803.80;;;22.44;55.60
74722;BME280;63470;49.826;6.740;2023-04-08T11:29:17;100804.65;;;22.29;55.80
74722;BME280;63470;49.826;6.740;2023-04-08T11:31:50;100804.93;;;22.59;55.31
74722;BME280;63470;49.826;6.740;2023-04-08T11:34:22;100799.72;;;22.84;54.87
74722;BME280;63470;49.826;6.740;2023-04-08T11:36:49;100799.25;;;23.12;53.87
74722;BME280;63470;49.826;6.740;2023-04-08T11:39:21;100801.08;;;23.35;53.39
74722;BME280;63470;49.826;6.740;2023-04-08T11:41:50;100798.45;;;23.79;52.62
74722;BME280;63470;49.826;6.740;2023-04-08T11:44:32;100795.34;;;23.77;52.61
74722;BME280;63470;49.826;6.740;2023-04-08T11:46:52;100795.24;;;23.03;53.35
74722;BME280;63470;49.826;6.740;2023-04-08T11:49:22;100797.36;;;21.81;54.93
74722;BME280;63470;49.826;6.740;2023-04-08T11:51:57;100798.62;;;20.97;56.12
74722;BME280;63470;49.826;6.740;2023-04-08T11:54:30;100802.30;;;20.44;56.62
74722;BME280;63470;49.826;6.740;2023-04-08T11:56:53;100802.92;;;20.13;56.86
74722;BME280;63470;49.826;6.740;2023-04-08T11:59:24;100796.92;;;19.94;56.63
74722;BME280;63470;49.826;6.740;2023-04-08T12:01:55;100802.04;;;19.57;56.91
74722;BME280;63470;49.826;6.740;2023-04-08T12:04:27;100801.92;;;19.22;57.06
74722;BME280;63470;49.826;6.740;2023-04-08T12:06:56;100801.94;;;18.63;57.58
74722;BME280;63470;49.826;6.740;2023-04-08T12:09:27;100799.86;;;18.12;58.00
74722;BME280;63470;49.826;6.740;2023-04-08T12:11:57;100806.03;;;17.61;58.28
74722;BME280;63470;49.826;6.740;2023-04-08T12:14:28;100809.58;;;17.16;58.45
74722;BME280;63470;49.826;6.740;2023-04-08T12:16:59;100813.95;;;16.69;58.61
74722;BME280;63470;49.826;6.740;2023-04-08T12:19:29;100817.83;;;16.29;58.74
74722;BME280;63470;49.826;6.740;2023-04-08T12:21:59;100822.30;;;15.98;58.73
74722;BME280;63470;49.826;6.740;2023-04-08T12:24:30;100828.20;;;15.67;58.70
74722;BME280;63470;49.826;6.740;2023-04-08T12:27:02;100834.20;;;15.39;58.71
74722;BME280;63470;49.826;6.740;2023-04-08T12:29:31;100836.73;;;15.15;58.67
74722;BME280;63470;49.826;6.740;2023-04-08T12:32:04;100838.10;;;14.95;58.62
74722;BME280;63470;49.826;6.740;2023-04-08T12:34:32;100834.23;;;14.82;58.60
74722;BME280;63470;49.826;6.740;2023-04-08T12:37:03;100839.83;;;14.77;58.48
74722;BME280;63470;49.826;6.740;2023-04-08T12:39:33;100840.25;;;14.77;58.30
74722;BME280;63470;49.826;6.740;2023-04-08T12:42:04;100837.33;;;14.74;58.09
74722;BME280;63470;49.826;6.740;2023-04-08T12:44:35;100838.33;;;14.74;57.94
74722;BME280;63470;49.826;6.740;2023-04-08T12:47:06;100837.97;;;14.75;57.76
74722;BME280;63470;49.826;6.740;2023-04-08T12:49:36;100835.89;;;14.72;57.63
74722;BME280;63470;49.826;6.740;2023-04-08T12:52:09;100834.56;;;14.71;57.56
74722;BME280;63470;49.826;6.740;2023-04-08T12:54:37;100837.67;;;14.73;57.43
74722;BME280;63470;49.826;6.740;2023-04-08T12:57:08;100835.84;;;14.77;57.31
74722;BME280;63470;49.826;6.740;2023-04-08T12:59:39;100836.98;;;14.82;57.16
74722;BME280;63470;49.826;6.740;2023-04-08T13:02:09;100833.56;;;14.86;57.09
74722;BME280;63470;49.826;6.740;2023-04-08T13:04:40;100833.56;;;14.99;56.93
74722;BME280;63470;49.826;6.740;2023-04-08T13:07:10;100834.95;;;15.14;56.69
74722;BME280;63470;49.826;6.740;2023-04-08T13:09:40;100833.60;;;15.27;56.51
74722;BME280;63470;49.826;6.740;2023-04-08T13:12:11;100836.39;;;15.53;56.27
74722;BME280;63470;49.826;6.740;2023-04-08T13:14:41;100835.12;;;15.86;55.93
74722;BME280;63470;49.826;6.740;2023-04-08T13:17:11;100834.25;;;16.03;55.52
74722;BME280;63470;49.826;6.740;2023-04-08T13:19:42;100832.08;;;16.09;55.56
74722;BME280;63470;49.826;6.740;2023-04-08T13:22:13;100828.42;;;16.23;55.50